sensor_id;sensor_type;location;lat;lon;timestamp;pressure;altitude;pressure_sealevel;temperature;humidity
33913;BME280;20200;52.084;5.224;2023-02-28T00:01:10;152188.0;;;13.59;35.69
33913;BME280;20200;52.084;5.224;2023-02-28T00:02:47;152229.0;;;13.75;35.44
33913;BME280;20200;52.084;5.224;2023-02-28T00:04:24;152238.0;;;13.78;35.49
33913;BME280;20200;52.084;5.224;2023-02-28T00:07:37;152188.0;;;13.59;35.71
33913;BME280;20200;52.084;5.224;2023-02-28T00:09:14;152202.0;;;13.64;35.85
33913;BME280;20200;52.084;5.224;2023-02-28T00:10:50;152212.0;;;13.68;35.75
33913;BME280;20200;52.084;5.224;2023-02-28T00:14:02;152255.0;;;13.85;35.43
33913;BME280;20200;52.084;5.224;2023-02-28T00:15:39;152221.0;;;13.72;35.85
33913;BME280;20200;52.084;5.224;2023-02-28T00:17:15;152214.0;;;13.69;35.96
33913;BME280;20200;52.084;5.224;2023-02-28T00:20:27;152272.0;;;13.92;35.65
33913;BME280;20200;52.084;5.224;2023-02-28T00:22:03;152187.0;;;13.58;36.22
33913;BME280;20200;52.084;5.224;2023-02-28T00:23:39;152233.0;;;13.77;36.01
33913;BME280;20200;52.084;5.224;2023-02-28T00:25:17;152212.0;;;13.68;36.11
33913;BME280;20200;52.084;5.224;2023-02-28T00:28:32;152187.0;;;13.58;36.46
33913;BME280;20200;52.084;5.224;2023-02-28T00:30:11;152184.0;;;13.57;36.51
33913;BME280;20200;52.084;5.224;2023-02-28T00:31:51;152219.0;;;13.71;36.4
33913;BME280;20200;52.084;5.224;2023-02-28T00:35:06;152293.0;;;14.0;35.9
33913;BME280;20200;52.084;5.224;2023-02-28T00:36:43;152334.0;;;14.17;35.53
33913;BME280;20200;52.084;5.224;2023-02-28T00:38:18;152318.0;;;14.1;35.79
33913;BME280;20200;52.084;5.224;2023-02-28T00:39:56;152341.0;;;14.19;35.69
33913;BME280;20200;52.084;5.224;2023-02-28T00:43:08;152291.0;;;13.99;35.78
33913;BME280;20200;52.084;5.224;2023-02-28T00:44:44;152249.0;;;13.83;36.29
33913;BME280;20200;52.084;5.224;2023-02-28T00:46:20;152345.0;;;14.21;35.67
33913;BME280;20200;52.084;5.224;2023-02-28T00:49:33;152309.0;;;14.07;35.93
33913;BME280;20200;52.084;5.224;2023-02-28T00:51:09;152328.0;;;14.14;35.83
33913;BME280;20200;52.084;5.224;2023-02-28T00:52:45;152357.0;;;14.26;35.71
33913;BME280;20200;52.084;5.224;2023-02-28T00:55:59;152329.0;;;14.15;35.79
33913;BME280;20200;52.084;5.224;2023-02-28T00:57:36;152334.0;;;14.17;35.87
33913;BME280;20200;52.084;5.224;2023-02-28T00:59:12;152396.0;;;14.41;35.36
33913;BME280;20200;52.084;5.224;2023-02-28T01:02:26;152429.0;;;14.54;35.28
33913;BME280;20200;52.084;5.224;2023-02-28T01:04:02;152350.0;;;14.23;35.94
33913;BME280;20200;52.084;5.224;2023-02-28T01:05:38;152359.0;;;14.26;35.93
33913;BME280;20200;52.084;5.224;2023-02-28T01:07:14;152453.0;;;14.64;35.35
33913;BME280;20200;52.084;5.224;2023-02-28T01:10:28;152380.0;;;14.35;35.71
33913;BME280;20200;52.084;5.224;2023-02-28T01:12:04;152511.0;;;14.87;34.87
33913;BME280;20200;52.084;5.224;2023-02-28T01:13:40;152484.0;;;14.76;35.1
33913;BME280;20200;52.084;5.224;2023-02-28T01:16:53;152489.0;;;14.78;35.18
33913;BME280;20200;52.084;5.224;2023-02-28T01:18:29;152512.0;;;14.87;35.04
33913;BME280;20200;52.084;5.224;2023-02-28T01:20:06;152402.0;;;14.44;35.56
33913;BME280;20200;52.084;5.224;2023-02-28T01:23:19;152407.0;;;14.46;35.92
33913;BME280;20200;52.084;5.224;2023-02-28T01:24:56;152375.0;;;14.33;36.03
33913;BME280;20200;52.084;5.224;2023-02-28T01:26:32;152424.0;;;14.52;35.85
33913;BME280;20200;52.084;5.224;2023-02-28T01:28:08;152505.0;;;14.85;35.35
33913;BME280;20200;52.084;5.224;2023-02-28T01:31:21;152391.0;;;14.39;35.99
33913;BME280;20200;52.084;5.224;2023-02-28T01:32:59;152464.0;;;14.68;35.6
33913;BME280;20200;52.084;5.224;2023-02-28T01:34:35;152501.0;;;14.83;35.35
33913;BME280;20200;52.084;5.224;2023-02-28T01:37:51;152435.0;;;14.57;35.85
33913;BME280;20200;52.084;5.224;2023-02-28T01:39:27;152427.0;;;14.54;35.71
33913;BME280;20200;52.084;5.224;2023-02-28T01:41:04;152402.0;;;14.44;35.99
33913;BME280;20200;52.084;5.224;2023-02-28T01:42:40;152394.0;;;14.4;36.1
33913;BME280;20200;52.084;5.224;2023-02-28T01:47:02;152404.0;;;14.44;36.14
33913;BME280;20200;52.084;5.224;2023-02-28T01:50:20;152401.0;;;14.43;36.21
33913;BME280;20200;52.084;5.224;2023-02-28T01:51:58;152384.0;;;14.36;36.17
33913;BME280;20200;52.084;5.224;2023-02-28T01:53:37;152391.0;;;14.39;36.26
33913;BME280;20200;52.084;5.224;2023-02-28T01:55:19;152479.0;;;14.74;35.68
33913;BME280;20200;52.084;5.224;2023-02-28T01:58:40;152464.0;;;14.68;35.85
33913;BME280;20200;52.084;5.224;2023-02-28T02:00:20;152503.0;;;14.84;35.33
33913;BME280;20200;52.084;5.224;2023-02-28T02:01:59;152559.0;;;15.06;35.14
33913;BME280;20200;52.084;5.224;2023-02-28T02:03:36;152450.0;;;14.63;35.49
33913;BME280;20200;52.084;5.224;2023-02-28T02:06:53;152508.0;;;14.86;35.39
33913;BME280;20200;52.084;5.224;2023-02-28T02:08:30;152519.0;;;14.9;35.31
33913;BME280;20200;52.084;5.224;2023-02-28T02:10:12;152478.0;;;14.74;35.62
33913;BME280;20200;52.084;5.224;2023-02-28T02:13:41;152473.0;;;14.72;35.26
33913;BME280;20200;52.084;5.224;2023-02-28T02:15:32;152459.0;;;14.66;35.57
33913;BME280;20200;52.084;5.224;2023-02-28T02:17:19;152463.0;;;14.68;35.36
33913;BME280;20200;52.084;5.224;2023-02-28T02:19:08;152395.0;;;14.41;35.93
33913;BME280;20200;52.084;5.224;2023-02-28T02:21:30;152512.0;;;14.88;35.46
33913;BME280;20200;52.084;5.224;2023-02-28T02:27:18;152565.0;;;15.09;35.03
33913;BME280;20200;52.084;5.224;2023-02-28T02:30:04;152456.0;;;14.65;35.74
33913;BME280;20200;52.084;5.224;2023-02-28T02:33:13;152505.0;;;14.84;35.51
33913;BME280;20200;52.084;5.224;2023-02-28T02:35:29;152547.0;;;15.01;35.24
33913;BME280;20200;52.084;5.224;2023-02-28T02:37:14;152472.0;;;14.72;35.78
33913;BME280;20200;52.084;5.224;2023-02-28T02:40:46;152459.0;;;14.66;35.78
33913;BME280;20200;52.084;5.224;2023-02-28T02:42:35;152505.0;;;14.84;35.51
33913;BME280;20200;52.084;5.224;2023-02-28T02:44:19;152409.0;;;14.47;35.99
33913;BME280;20200;52.084;5.224;2023-02-28T02:46:01;152526.0;;;14.93;35.42
33913;BME280;20200;52.084;5.224;2023-02-28T02:47:41;152517.0;;;14.9;35.6
33913;BME280;20200;52.084;5.224;2023-02-28T02:51:01;152535.0;;;14.96;35.46
33913;BME280;20200;52.084;5.224;2023-02-28T02:52:44;152533.0;;;14.96;35.47
33913;BME280;20200;52.084;5.224;2023-02-28T02:54:35;152510.0;;;14.87;35.61
33913;BME280;20200;52.084;5.224;2023-02-28T02:56:13;152526.0;;;14.93;35.61
33913;BME280;20200;52.084;5.224;2023-02-28T02:59:34;152571.0;;;15.11;35.33
33913;BME280;20200;52.084;5.224;2023-02-28T03:01:17;152505.0;;;14.85;35.89
33913;BME280;20200;52.084;5.224;2023-02-28T03:02:55;152459.0;;;14.66;36.36
33913;BME280;20200;52.084;5.224;2023-02-28T03:04:36;152513.0;;;14.88;35.97
33913;BME280;20200;52.084;5.224;2023-02-28T03:07:54;152519.0;;;14.9;35.9
33913;BME280;20200;52.084;5.224;2023-02-28T03:09:33;152459.0;;;14.66;36.35
33913;BME280;20200;52.084;5.224;2023-02-28T03:11:13;152486.0;;;14.77;36.33
33913;BME280;20200;52.084;5.224;2023-02-28T03:12:55;152453.0;;;14.64;36.42
33913;BME280;20200;52.084;5.224;2023-02-28T03:16:35;152572.0;;;15.11;35.75
33913;BME280;20200;52.084;5.224;2023-02-28T03:18:24;152532.0;;;14.95;35.99
33913;BME280;20200;52.084;5.224;2023-02-28T03:20:09;152478.0;;;14.74;36.57
33913;BME280;20200;52.084;5.224;2023-02-28T03:21:58;152444.0;;;14.61;36.9
33913;BME280;20200;52.084;5.224;2023-02-28T03:23:45;152478.0;;;14.74;36.85
33913;BME280;20200;52.084;5.224;2023-02-28T03:25:31;152494.0;;;14.8;36.64
33913;BME280;20200;52.084;5.224;2023-02-28T03:29:02;152499.0;;;14.82;36.56
33913;BME280;20200;52.084;5.224;2023-02-28T03:30:47;152528.0;;;14.94;36.39
33913;BME280;20200;52.084;5.224;2023-02-28T03:32:29;152511.0;;;14.87;36.5
33913;BME280;20200;52.084;5.224;2023-02-28T03:34:13;152461.0;;;14.67;36.86
33913;BME280;20200;52.084;5.224;2023-02-28T03:35:55;152433.0;;;14.56;37.11
33913;BME280;20200;52.084;5.224;2023-02-28T03:39:20;152475.0;;;14.73;36.92
33913;BME280;20200;52.084;5.224;2023-02-28T03:41:01;152474.0;;;14.72;36.96
33913;BME280;20200;52.084;5.224;2023-02-28T03:42:43;152464.0;;;14.68;37.03
33913;BME280;20200;52.084;5.224;2023-02-28T03:44:24;152483.0;;;14.76;36.99
33913;BME280;20200;52.084;5.224;2023-02-28T03:47:49;152474.0;;;14.72;36.89
33913;BME280;20200;52.084;5.224;2023-02-28T03:49:31;152390.0;;;14.39;37.46
33913;BME280;20200;52.084;5.224;2023-02-28T03:51:13;152437.0;;;14.58;37.24
33913;BME280;20200;52.084;5.224;2023-02-28T03:52:56;152461.0;;;14.67;37.03
33913;BME280;20200;52.084;5.224;2023-02-28T03:54:41;152446.0;;;14.61;37.12
33913;BME280;20200;52.084;5.224;2023-02-28T03:58:08;152454.0;;;14.64;37.07
33913;BME280;20200;52.084;5.224;2023-02-28T03:59:56;152538.0;;;14.98;36.58
33913;BME280;20200;52.084;5.224;2023-02-28T04:01:38;152500.0;;;14.82;36.64
33913;BME280;20200;52.084;5.224;2023-02-28T04:03:16;152487.0;;;14.77;36.96
33913;BME280;20200;52.084;5.224;2023-02-28T04:06:31;152436.0;;;14.57;37.31
33913;BME280;20200;52.084;5.224;2023-02-28T04:08:08;152503.0;;;14.84;36.9
33913;BME280;20200;52.084;5.224;2023-02-28T04:09:44;152552.0;;;15.03;36.53
33913;BME280;20200;52.084;5.224;2023-02-28T04:11:22;152570.0;;;15.1;36.32
33913;BME280;20200;52.084;5.224;2023-02-28T04:14:38;152452.0;;;14.64;37.1
33913;BME280;20200;52.084;5.224;2023-02-28T04:16:15;152368.0;;;14.3;37.69
33913;BME280;20200;52.084;5.224;2023-02-28T04:17:51;152400.0;;;14.43;36.99
33913;BME280;20200;52.084;5.224;2023-02-28T04:21:04;152377.0;;;14.34;37.12
33913;BME280;20200;52.084;5.224;2023-02-28T04:22:41;152457.0;;;14.66;36.49
33913;BME280;20200;52.084;5.224;2023-02-28T04:24:19;152417.0;;;14.5;36.42
33913;BME280;20200;52.084;5.224;2023-02-28T04:25:56;152392.0;;;14.4;36.42
33913;BME280;20200;52.084;5.224;2023-02-28T04:29:10;152373.0;;;14.32;36.03
33913;BME280;20200;52.084;5.224;2023-02-28T04:30:54;152349.0;;;14.22;36.31
33913;BME280;20200;52.084;5.224;2023-02-28T04:32:31;152444.0;;;14.6;35.57
33913;BME280;20200;52.084;5.224;2023-02-28T04:35:43;152327.0;;;14.14;36.35
33913;BME280;20200;52.084;5.224;2023-02-28T04:37:19;152061.0;;;13.08;36.42
33913;BME280;20200;52.084;5.224;2023-02-28T04:38:56;152257.0;;;13.86;35.32
33913;BME280;20200;52.084;5.224;2023-02-28T04:40:33;152288.0;;;13.98;35.5
33913;BME280;20200;52.084;5.224;2023-02-28T04:43:46;152337.0;;;14.18;35.31
33913;BME280;20200;52.084;5.224;2023-02-28T04:45:22;152301.0;;;14.04;35.39
33913;BME280;20200;52.084;5.224;2023-02-28T04:46:58;152210.0;;;13.67;35.31
33913;BME280;20200;52.084;5.224;2023-02-28T04:50:14;152268.0;;;13.9;35.03
33913;BME280;20200;52.084;5.224;2023-02-28T04:51:50;152352.0;;;14.24;34.43
33913;BME280;20200;52.084;5.224;2023-02-28T04:53:27;152293.0;;;14.0;34.67
33913;BME280;20200;52.084;5.224;2023-02-28T04:56:41;152261.0;;;13.88;35.18
33913;BME280;20200;52.084;5.224;2023-02-28T04:58:18;152208.0;;;13.66;35.11
33913;BME280;20200;52.084;5.224;2023-02-28T04:59:54;152246.0;;;13.82;34.72
33913;BME280;20200;52.084;5.224;2023-02-28T05:01:32;152133.0;;;13.37;35.01
33913;BME280;20200;52.084;5.224;2023-02-28T05:04:45;152263.0;;;13.88;34.24
33913;BME280;20200;52.084;5.224;2023-02-28T05:06:22;152103.0;;;13.25;34.99
33913;BME280;20200;52.084;5.224;2023-02-28T05:07:59;152195.0;;;13.61;34.83
33913;BME280;20200;52.084;5.224;2023-02-28T05:11:16;152266.0;;;13.9;34.43
33913;BME280;20200;52.084;5.224;2023-02-28T05:12:52;152264.0;;;13.89;34.17
33913;BME280;20200;52.084;5.224;2023-02-28T05:14:29;152229.0;;;13.75;33.97
33913;BME280;20200;52.084;5.224;2023-02-28T05:16:05;152189.0;;;13.59;34.39
33913;BME280;20200;52.084;5.224;2023-02-28T05:19:19;152145.0;;;13.42;34.35
33913;BME280;20200;52.084;5.224;2023-02-28T05:20:55;152138.0;;;13.39;34.44
33913;BME280;20200;52.084;5.224;2023-02-28T05:22:31;152218.0;;;13.71;34.08
33913;BME280;20200;52.084;5.224;2023-02-28T05:25:47;152153.0;;;13.45;34.57
33913;BME280;20200;52.084;5.224;2023-02-28T05:27:24;152051.0;;;13.04;35.03
33913;BME280;20200;52.084;5.224;2023-02-28T05:30:36;152092.0;;;13.2;35.25
33913;BME280;20200;52.084;5.224;2023-02-28T05:32:13;152173.0;;;13.52;34.72
33913;BME280;20200;52.084;5.224;2023-02-28T05:33:49;152112.0;;;13.28;35.42
33913;BME280;20200;52.084;5.224;2023-02-28T05:35:26;152028.0;;;12.95;36.17
33913;BME280;20200;52.084;5.224;2023-02-28T05:37:02;152005.0;;;12.86;37.1
33913;BME280;20200;52.084;5.224;2023-02-28T05:40:15;152013.0;;;12.89;37.33
33913;BME280;20200;52.084;5.224;2023-02-28T05:41:52;151984.0;;;12.77;37.72
33913;BME280;20200;52.084;5.224;2023-02-28T05:43:28;152026.0;;;12.94;38.03
33913;BME280;20200;52.084;5.224;2023-02-28T05:46:41;152066.0;;;13.1;37.74
33913;BME280;20200;52.084;5.224;2023-02-28T05:48:17;152039.0;;;12.99;38.22
33913;BME280;20200;52.084;5.224;2023-02-28T05:49:53;151996.0;;;12.82;38.87
33913;BME280;20200;52.084;5.224;2023-02-28T05:53:06;152047.0;;;13.03;38.5
33913;BME280;20200;52.084;5.224;2023-02-28T05:54:42;151981.0;;;12.76;39.36
33913;BME280;20200;52.084;5.224;2023-02-28T05:56:18;151969.0;;;12.72;39.43
33913;BME280;20200;52.084;5.224;2023-02-28T05:57:54;151956.0;;;12.66;39.5
33913;BME280;20200;52.084;5.224;2023-02-28T06:01:32;151950.0;;;12.64;39.67
33913;BME280;20200;52.084;5.224;2023-02-28T06:03:09;152015.0;;;12.9;39.24
33913;BME280;20200;52.084;5.224;2023-02-28T06:04:45;151950.0;;;12.64;39.92
33913;BME280;20200;52.084;5.224;2023-02-28T06:06:22;151955.0;;;12.66;39.99
33913;BME280;20200;52.084;5.224;2023-02-28T06:09:35;151955.0;;;12.66;40.1
33913;BME280;20200;52.084;5.224;2023-02-28T06:11:11;152005.0;;;12.86;39.42
33913;BME280;20200;52.084;5.224;2023-02-28T06:12:48;151999.0;;;12.83;39.81
33913;BME280;20200;52.084;5.224;2023-02-28T06:16:01;152022.0;;;12.92;39.64
33913;BME280;20200;52.084;5.224;2023-02-28T06:17:37;151992.0;;;12.8;40.06
33913;BME280;20200;52.084;5.224;2023-02-28T06:19:13;151998.0;;;12.83;39.96
33913;BME280;20200;52.084;5.224;2023-02-28T06:22:28;152031.0;;;12.96;39.79
33913;BME280;20200;52.084;5.224;2023-02-28T06:24:05;152049.0;;;13.03;39.53
33913;BME280;20200;52.084;5.224;2023-02-28T06:25:44;152005.0;;;12.86;39.99
33913;BME280;20200;52.084;5.224;2023-02-28T06:27:20;152028.0;;;12.95;40.06
33913;BME280;20200;52.084;5.224;2023-02-28T06:30:33;151994.0;;;12.81;40.29
33913;BME280;20200;52.084;5.224;2023-02-28T06:32:09;152038.0;;;12.99;39.74
33913;BME280;20200;52.084;5.224;2023-02-28T06:33:46;152014.0;;;12.89;40.18
33913;BME280;20200;52.084;5.224;2023-02-28T06:36:59;152017.0;;;12.91;40.31
33913;BME280;20200;52.084;5.224;2023-02-28T06:38:36;152015.0;;;12.9;40.33
33913;BME280;20200;52.084;5.224;2023-02-28T06:40:14;152022.0;;;12.92;40.33
33913;BME280;20200;52.084;5.224;2023-02-28T06:41:51;152075.0;;;13.14;39.92
33913;BME280;20200;52.084;5.224;2023-02-28T06:45:06;152019.0;;;12.91;40.14
33913;BME280;20200;52.084;5.224;2023-02-28T06:46:44;151986.0;;;12.78;40.74
33913;BME280;20200;52.084;5.224;2023-02-28T06:48:21;152059.0;;;13.07;40.17
33913;BME280;20200;52.084;5.224;2023-02-28T06:51:33;152224.0;;;13.73;38.9
33913;BME280;20200;52.084;5.224;2023-02-28T06:53:09;152269.0;;;13.91;38.25
33913;BME280;20200;52.084;5.224;2023-02-28T06:54:45;152292.0;;;14.0;38.18
33913;BME280;20200;52.084;5.224;2023-02-28T06:57:57;152267.0;;;13.9;38.21
33913;BME280;20200;52.084;5.224;2023-02-28T06:59:35;152224.0;;;13.73;38.6
33913;BME280;20200;52.084;5.224;2023-02-28T07:01:11;152295.0;;;14.01;38.12
33913;BME280;20200;52.084;5.224;2023-02-28T07:02:49;152262.0;;;13.88;38.25
33913;BME280;20200;52.084;5.224;2023-02-28T07:06:01;152265.0;;;13.89;38.29
33913;BME280;20200;52.084;5.224;2023-02-28T07:07:39;152267.0;;;13.9;38.28
33913;BME280;20200;52.084;5.224;2023-02-28T07:09:15;152296.0;;;14.02;38.24
33913;BME280;20200;52.084;5.224;2023-02-28T07:12:29;152310.0;;;14.07;38.03
33913;BME280;20200;52.084;5.224;2023-02-28T07:14:05;152327.0;;;14.14;37.97
33913;BME280;20200;52.084;5.224;2023-02-28T07:15:41;152404.0;;;14.45;37.4
33913;BME280;20200;52.084;5.224;2023-02-28T07:18:53;152333.0;;;14.16;37.89
33913;BME280;20200;52.084;5.224;2023-02-28T07:20:29;152356.0;;;14.25;37.99
33913;BME280;20200;52.084;5.224;2023-02-28T07:22:07;152195.0;;;13.61;38.94
33913;BME280;20200;52.084;5.224;2023-02-28T07:23:44;152311.0;;;14.08;38.29
33913;BME280;20200;52.084;5.224;2023-02-28T07:26:56;152191.0;;;13.6;39.39
33913;BME280;20200;52.084;5.224;2023-02-28T07:28:33;152307.0;;;14.06;38.36
33913;BME280;20200;52.084;5.224;2023-02-28T07:30:10;152294.0;;;14.01;38.6
33913;BME280;20200;52.084;5.224;2023-02-28T07:33:23;152247.0;;;13.82;38.92
33913;BME280;20200;52.084;5.224;2023-02-28T07:34:59;152325.0;;;14.13;38.53
33913;BME280;20200;52.084;5.224;2023-02-28T07:36:35;152260.0;;;13.87;38.82
33913;BME280;20200;52.084;5.224;2023-02-28T07:39:47;152260.0;;;13.87;38.99
33913;BME280;20200;52.084;5.224;2023-02-28T07:41:23;152259.0;;;13.87;39.06
33913;BME280;20200;52.084;5.224;2023-02-28T07:42:59;152192.0;;;13.6;39.56
33913;BME280;20200;52.084;5.224;2023-02-28T07:44:36;152187.0;;;13.58;39.99
33913;BME280;20200;52.084;5.224;2023-02-28T07:47:52;152184.0;;;13.57;40.08
33913;BME280;20200;52.084;5.224;2023-02-28T07:49:29;152135.0;;;13.37;40.53
33913;BME280;20200;52.084;5.224;2023-02-28T07:51:05;152148.0;;;13.43;40.17
33913;BME280;20200;52.084;5.224;2023-02-28T07:54:18;152229.0;;;13.75;39.53
33913;BME280;20200;52.084;5.224;2023-02-28T07:55:55;152197.0;;;13.62;40.08
33913;BME280;20200;52.084;5.224;2023-02-28T07:57:31;152302.0;;;14.04;39.12
33913;BME280;20200;52.084;5.224;2023-02-28T08:00:44;152258.0;;;13.87;39.54
33913;BME280;20200;52.084;5.224;2023-02-28T08:02:20;152203.0;;;13.65;40.06
33913;BME280;20200;52.084;5.224;2023-02-28T08:03:56;152172.0;;;13.52;40.78
33913;BME280;20200;52.084;5.224;2023-02-28T08:05:32;152228.0;;;13.74;40.15
33913;BME280;20200;52.084;5.224;2023-02-28T08:08:45;152302.0;;;14.04;39.58
33913;BME280;20200;52.084;5.224;2023-02-28T08:10:20;152279.0;;;13.95;39.82
33913;BME280;20200;52.084;5.224;2023-02-28T08:11:57;152224.0;;;13.73;40.31
33913;BME280;20200;52.084;5.224;2023-02-28T08:15:09;152192.0;;;13.6;40.87
33913;BME280;20200;52.084;5.224;2023-02-28T08:16:46;152313.0;;;14.08;39.87
33913;BME280;20200;52.084;5.224;2023-02-28T08:18:23;152280.0;;;13.95;40.06
33913;BME280;20200;52.084;5.224;2023-02-28T08:21:36;152272.0;;;13.92;40.17
33913;BME280;20200;52.084;5.224;2023-02-28T08:23:12;152257.0;;;13.86;40.26
33913;BME280;20200;52.084;5.224;2023-02-28T08:24:49;152293.0;;;14.0;39.69
33913;BME280;20200;52.084;5.224;2023-02-28T08:28:02;152246.0;;;13.81;40.33
33913;BME280;20200;52.084;5.224;2023-02-28T08:29:38;152242.0;;;13.8;40.58
33913;BME280;20200;52.084;5.224;2023-02-28T08:31:16;152229.0;;;13.75;40.36
33913;BME280;20200;52.084;5.224;2023-02-28T08:32:53;152217.0;;;13.7;40.46
33913;BME280;20200;52.084;5.224;2023-02-28T08:36:06;152242.0;;;13.8;39.87
33913;BME280;20200;52.084;5.224;2023-02-28T08:37:43;152245.0;;;13.81;39.46
33913;BME280;20200;52.084;5.224;2023-02-28T08:39:19;152307.0;;;14.06;39.06
33913;BME280;20200;52.084;5.224;2023-02-28T08:42:35;152292.0;;;14.0;39.1
33913;BME280;20200;52.084;5.224;2023-02-28T08:44:12;152206.0;;;13.66;39.99
33913;BME280;20200;52.084;5.224;2023-02-28T08:45:51;152218.0;;;13.71;39.5
33913;BME280;20200;52.084;5.224;2023-02-28T08:47:27;152256.0;;;13.86;38.9
33913;BME280;20200;52.084;5.224;2023-02-28T08:50:39;152282.0;;;13.96;38.85
33913;BME280;20200;52.084;5.224;2023-02-28T08:52:16;152218.0;;;13.71;38.97
33913;BME280;20200;52.084;5.224;2023-02-28T08:53:54;152201.0;;;13.64;38.68
33913;BME280;20200;52.084;5.224;2023-02-28T08:57:06;152262.0;;;13.88;38.44
33913;BME280;20200;52.084;5.224;2023-02-28T08:58:43;152347.0;;;14.22;37.64
33913;BME280;20200;52.084;5.224;2023-02-28T09:00:21;152288.0;;;13.98;38.37
33913;BME280;20200;52.084;5.224;2023-02-28T09:03:34;152319.0;;;14.11;37.76
33913;BME280;20200;52.084;5.224;2023-02-28T09:05:10;152239.0;;;13.79;38.14
33913;BME280;20200;52.084;5.224;2023-02-28T09:06:46;152282.0;;;13.96;37.79
33913;BME280;20200;52.084;5.224;2023-02-28T09:08:22;152275.0;;;13.93;37.69
33913;BME280;20200;52.084;5.224;2023-02-28T09:11:36;152283.0;;;13.96;37.96
33913;BME280;20200;52.084;5.224;2023-02-28T09:13:12;152236.0;;;13.78;38.31
33913;BME280;20200;52.084;5.224;2023-02-28T09:14:49;152255.0;;;13.85;37.24
33913;BME280;20200;52.084;5.224;2023-02-28T09:18:01;152288.0;;;13.98;36.56
33913;BME280;20200;52.084;5.224;2023-02-28T09:19:37;152212.0;;;13.68;36.1
33913;BME280;20200;52.084;5.224;2023-02-28T09:21:15;152345.0;;;14.21;36.14
33913;BME280;20200;52.084;5.224;2023-02-28T09:24:28;152338.0;;;14.18;35.89
33913;BME280;20200;52.084;5.224;2023-02-28T09:26:05;152340.0;;;14.19;35.17
33913;BME280;20200;52.084;5.224;2023-02-28T09:27:42;152258.0;;;13.86;34.64
33913;BME280;20200;52.084;5.224;2023-02-28T09:29:18;152326.0;;;14.13;35.26
33913;BME280;20200;52.084;5.224;2023-02-28T09:32:31;152359.0;;;14.26;34.93
33913;BME280;20200;52.084;5.224;2023-02-28T09:34:07;152431.0;;;14.55;35.18
33913;BME280;20200;52.084;5.224;2023-02-28T09:35:43;152407.0;;;14.46;34.18
33913;BME280;20200;52.084;5.224;2023-02-28T09:38:56;152351.0;;;14.23;33.14
33913;BME280;20200;52.084;5.224;2023-02-28T09:40:35;152471.0;;;14.71;32.71
33913;BME280;20200;52.084;5.224;2023-02-28T09:42:20;152519.0;;;14.9;32.96
33913;BME280;20200;52.084;5.224;2023-02-28T09:44:07;152510.0;;;14.87;33.07
33913;BME280;20200;52.084;5.224;2023-02-28T09:47:33;152475.0;;;14.73;32.03
33913;BME280;20200;52.084;5.224;2023-02-28T09:49:14;152460.0;;;14.67;31.83
33913;BME280;20200;52.084;5.224;2023-02-28T09:50:59;152546.0;;;15.01;31.7
33913;BME280;20200;52.084;5.224;2023-02-28T09:52:36;152476.0;;;14.73;31.37
33913;BME280;20200;52.084;5.224;2023-02-28T09:55:55;152491.0;;;14.79;30.03
33913;BME280;20200;52.084;5.224;2023-02-28T09:57:38;152234.0;;;13.77;28.94
33913;BME280;20200;52.084;5.224;2023-02-28T09:59:25;152470.0;;;14.71;28.43
33913;BME280;20200;52.084;5.224;2023-02-28T10:01:22;152542.0;;;14.99;27.45
33913;BME280;20200;52.084;5.224;2023-02-28T10:03:20;152574.0;;;15.12;26.81
33913;BME280;20200;52.084;5.224;2023-02-28T10:05:05;152460.0;;;14.67;25.85
33913;BME280;20200;52.084;5.224;2023-02-28T10:08:26;152454.0;;;14.64;26.95
33913;BME280;20200;52.084;5.224;2023-02-28T10:10:18;152589.0;;;15.18;26.09
33913;BME280;20200;52.084;5.224;2023-02-28T10:12:00;152443.0;;;14.6;25.23
33913;BME280;20200;52.084;5.224;2023-02-28T10:13:48;152437.0;;;14.58;25.46
33913;BME280;20200;52.084;5.224;2023-02-28T10:15:29;152368.0;;;14.3;24.63
33913;BME280;20200;52.084;5.224;2023-02-28T10:18:52;152345.0;;;14.21;24.91
33913;BME280;20200;52.084;5.224;2023-02-28T10:20:37;152408.0;;;14.46;26.09
33913;BME280;20200;52.084;5.224;2023-02-28T10:22:17;152385.0;;;14.37;25.31
33913;BME280;20200;52.084;5.224;2023-02-28T10:24:03;152377.0;;;14.34;24.76
33913;BME280;20200;52.084;5.224;2023-02-28T10:25:57;152583.0;;;15.16;25.06
33913;BME280;20200;52.084;5.224;2023-02-28T10:29:11;152419.0;;;14.5;24.59
33913;BME280;20200;52.084;5.224;2023-02-28T10:30:49;152655.0;;;15.44;25.12
33913;BME280;20200;52.084;5.224;2023-02-28T10:32:27;152606.0;;;15.25;24.64
33913;BME280;20200;52.084;5.224;2023-02-28T10:34:07;152756.0;;;15.84;24.93
33913;BME280;20200;52.084;5.224;2023-02-28T10:37:24;152864.0;;;16.27;25.18
33913;BME280;20200;52.084;5.224;2023-02-28T10:39:34;152972.0;;;16.7;24.53
33913;BME280;20200;52.084;5.224;2023-02-28T10:41:13;152760.0;;;15.87;24.71
33913;BME280;20200;52.084;5.224;2023-02-28T10:42:55;152816.0;;;16.09;23.73
33913;BME280;20200;52.084;5.224;2023-02-28T10:44:34;152766.0;;;15.89;24.55
33913;BME280;20200;52.084;5.224;2023-02-28T10:47:53;152727.0;;;15.73;24.35
33913;BME280;20200;52.084;5.224;2023-02-28T10:49:30;152694.0;;;15.6;23.41
33913;BME280;20200;52.084;5.224;2023-02-28T10:51:08;152791.0;;;15.98;23.73
33913;BME280;20200;52.084;5.224;2023-02-28T10:54:24;152879.0;;;16.34;23.36
33913;BME280;20200;52.084;5.224;2023-02-28T10:56:05;152843.0;;;16.2;23.68
33913;BME280;20200;52.084;5.224;2023-02-28T10:57:49;153050.0;;;17.02;22.98
33913;BME280;20200;52.084;5.224;2023-02-28T10:59:29;152812.0;;;16.07;23.92
33913;BME280;20200;52.084;5.224;2023-02-28T11:02:50;152689.0;;;15.58;22.95
33913;BME280;20200;52.084;5.224;2023-02-28T11:04:35;152845.0;;;16.2;23.41
33913;BME280;20200;52.084;5.224;2023-02-28T11:06:16;152829.0;;;16.13;22.9
33913;BME280;20200;52.084;5.224;2023-02-28T11:07:56;152892.0;;;16.38;23.23
33913;BME280;20200;52.084;5.224;2023-02-28T11:11:15;152790.0;;;15.98;22.07
33913;BME280;20200;52.084;5.224;2023-02-28T11:12:54;152827.0;;;16.12;22.83
33913;BME280;20200;52.084;5.224;2023-02-28T11:14:33;152857.0;;;16.25;23.72